Terminal Aerodrome Forecast
Issued by NWS

Home | Current Version | Previous Version | Text Only | Print | Product List | Glossary On
Versions: 1 2 3 4 5 6 7 8 9 10 11 12 13 14 15 16 17 18
059
FTUS41 KBTV 281131
TAFMPV
TAF
KMPV 281131Z 2812/0112 VRB03KT P6SM SCT040 BKN100
      TEMPO 2812/2816 BKN040
     FM281600 17007KT P6SM BKN150
     FM282300 17007KT P6SM VCSH BKN050
     FM010800 17007KT 5SM -SHRA BR OVC030=

USA.gov is the U.S. government's official web portal to all federal, state and local government web resources and services.